createdAt,value
2022-12-18T00:01:28.528Z,51.78
2022-12-18T00:03:56.943Z,50.17
2022-12-18T00:06:25.621Z,54.25
2022-12-18T00:08:53.160Z,48.88
2022-12-18T00:11:22.676Z,53.65
2022-12-18T00:13:50.278Z,47.38
2022-12-18T00:16:23.079Z,49.63
2022-12-18T00:18:51.646Z,54.75
2022-12-18T00:21:19.517Z,48.35
2022-12-18T00:23:48.404Z,50.65
2022-12-18T00:26:18.442Z,49.63
2022-12-18T00:28:46.058Z,53.00
2022-12-18T00:31:18.940Z,49.97
2022-12-18T00:33:46.074Z,53.42
2022-12-18T00:36:25.934Z,46.97
2022-12-18T00:38:54.962Z,51.67
2022-12-18T00:41:41.281Z,54.35
2022-12-18T00:44:11.244Z,54.90
2022-12-18T00:46:38.467Z,50.72
2022-12-18T00:49:06.180Z,60.60
2022-12-18T00:51:33.452Z,55.42
2022-12-18T00:54:00.812Z,50.47
2022-12-18T00:56:27.884Z,49.53
2022-12-18T00:58:55.397Z,52.17
2022-12-18T01:01:22.988Z,49.63
2022-12-18T01:03:50.225Z,46.97
2022-12-18T01:06:17.842Z,44.60
2022-12-18T01:08:45.176Z,42.90
2022-12-18T01:11:15.282Z,46.58
2022-12-18T01:13:42.993Z,44.03
2022-12-18T01:16:12.867Z,45.20
2022-12-18T01:18:40.310Z,48.08
2022-12-18T01:21:12.435Z,47.97
2022-12-18T01:23:39.967Z,47.78
2022-12-18T01:26:12.810Z,56.20
2022-12-18T01:28:41.046Z,47.72
2022-12-18T01:31:34.519Z,47.72
2022-12-18T01:34:02.604Z,45.97
2022-12-18T01:36:37.588Z,40.85
2022-12-18T01:39:07.257Z,47.75
2022-12-18T01:41:57.258Z,58.17
2022-12-18T01:45:02.088Z,48.08
2022-12-18T01:47:48.651Z,48.15
2022-12-18T01:50:25.992Z,53.92
2022-12-18T01:52:56.310Z,55.55
2022-12-18T01:55:26.353Z,57.67
2022-12-18T01:57:55.052Z,56.30
2022-12-18T02:00:24.237Z,53.60
2022-12-18T02:02:51.633Z,65.13
2022-12-18T02:05:29.122Z,63.17
2022-12-18T02:08:08.269Z,64.70
2022-12-18T02:11:14.143Z,62.63
2022-12-18T02:14:14.016Z,81.30
2022-12-18T02:17:04.544Z,76.57
2022-12-18T02:19:37.407Z,71.35
2022-12-18T02:22:36.412Z,81.32
2022-12-18T02:25:22.256Z,75.25
2022-12-18T02:27:50.153Z,82.88
2022-12-18T02:30:17.753Z,71.53
2022-12-18T02:32:48.193Z,86.93
2022-12-18T02:35:18.845Z,84.40
2022-12-18T02:37:46.968Z,75.90
2022-12-18T02:40:15.474Z,80.50
2022-12-18T02:42:42.713Z,92.68
2022-12-18T02:45:10.290Z,95.82
2022-12-18T02:47:39.839Z,93.85
2022-12-18T02:50:30.813Z,88.18
2022-12-18T02:53:00.917Z,84.45
2022-12-18T02:55:41.806Z,84.93
2022-12-18T02:58:47.901Z,89.40
2022-12-18T03:01:18.789Z,90.87
2022-12-18T03:03:53.393Z,97.57
2022-12-18T03:06:27.678Z,103.72
2022-12-18T03:09:01.037Z,90.65
2022-12-18T03:11:48.617Z,89.22
2022-12-18T03:14:17.197Z,80.25
2022-12-18T03:16:45.320Z,83.88
2022-12-18T03:19:17.962Z,87.95
2022-12-18T03:21:48.725Z,80.97
2022-12-18T03:24:16.335Z,79.45
2022-12-18T03:26:46.039Z,70.70
2022-12-18T03:29:22.784Z,67.95
2022-12-18T03:31:54.295Z,72.15
2022-12-18T03:34:24.985Z,72.97
2022-12-18T03:36:52.155Z,68.65
2022-12-18T03:39:20.228Z,67.80
2022-12-18T03:42:02.973Z,67.55
2022-12-18T03:44:41.013Z,64.55
2022-12-18T03:47:16.949Z,56.53
2022-12-18T03:50:02.075Z,63.55
2022-12-18T03:52:31.852Z,60.65
2022-12-18T03:55:00.523Z,57.67
2022-12-18T03:57:30.614Z,64.72
2022-12-18T04:00:14.938Z,59.78
2022-12-18T04:02:50.768Z,59.55
2022-12-18T04:05:18.942Z,60.70
2022-12-18T04:07:47.714Z,58.97
2022-12-18T04:10:16.106Z,54.15
2022-12-18T04:12:43.272Z,57.78
2022-12-18T04:15:11.770Z,58.67
2022-12-18T04:17:39.712Z,59.88
2022-12-18T04:20:07.134Z,56.42
2022-12-18T04:22:34.289Z,54.05
2022-12-18T04:25:01.473Z,54.67
2022-12-18T04:27:28.599Z,56.55
2022-12-18T04:29:55.763Z,58.97
2022-12-18T04:32:22.864Z,55.90
2022-12-18T04:34:49.964Z,54.25
2022-12-18T04:37:17.102Z,53.40
2022-12-18T04:39:44.216Z,57.55
2022-12-18T04:42:11.380Z,60.03
2022-12-18T04:44:38.513Z,55.75
2022-12-18T04:47:05.662Z,50.45
2022-12-18T04:49:32.776Z,54.67
2022-12-18T04:51:59.929Z,57.47
2022-12-18T04:54:27.024Z,56.13
2022-12-18T04:56:54.169Z,52.95
2022-12-18T04:59:22.349Z,49.38
2022-12-18T05:01:50.808Z,52.13
2022-12-18T05:04:18.131Z,54.90
2022-12-18T05:06:45.374Z,57.63
2022-12-18T05:09:12.515Z,53.55
2022-12-18T05:11:39.673Z,55.78
2022-12-18T05:14:06.793Z,58.92
2022-12-18T05:16:34.005Z,59.75
2022-12-18T05:19:01.109Z,55.97
2022-12-18T05:21:28.242Z,61.90
2022-12-18T05:23:55.361Z,54.30
2022-12-18T05:26:22.446Z,54.65
2022-12-18T05:28:49.606Z,62.95
2022-12-18T05:31:16.757Z,59.50
2022-12-18T05:33:44.272Z,61.35
2022-12-18T05:36:12.338Z,56.83
2022-12-18T05:38:40.209Z,59.97
2022-12-18T05:41:08.228Z,59.83
2022-12-18T05:43:37.457Z,64.63
2022-12-18T05:46:06.814Z,67.78
2022-12-18T05:48:34.454Z,63.00
2022-12-18T05:51:07.444Z,62.05
2022-12-18T05:53:35.198Z,64.45
2022-12-18T05:56:07.714Z,70.25
2022-12-18T05:58:35.463Z,69.15
2022-12-18T06:01:10.849Z,69.47
2022-12-18T06:03:38.171Z,84.43
2022-12-18T06:06:05.681Z,72.45
2022-12-18T06:08:32.837Z,77.00
2022-12-18T06:10:59.977Z,79.93
2022-12-18T06:13:27.088Z,85.65
2022-12-18T06:15:54.237Z,79.10
2022-12-18T06:18:21.343Z,75.95
2022-12-18T06:20:56.840Z,74.00
2022-12-18T06:23:24.021Z,77.55
2022-12-18T06:25:51.569Z,75.95
2022-12-18T06:28:19.252Z,77.60
2022-12-18T06:30:47.862Z,80.07
2022-12-18T06:33:15.996Z,77.20
2022-12-18T06:35:43.251Z,79.50
2022-12-18T06:38:10.415Z,73.07
2022-12-18T06:40:39.475Z,82.95
2022-12-18T06:43:07.091Z,72.57
2022-12-18T06:45:34.621Z,66.47
2022-12-18T06:48:01.967Z,71.90
2022-12-18T06:50:29.231Z,75.32
2022-12-18T06:52:57.025Z,63.67
2022-12-18T06:55:24.207Z,66.20
2022-12-18T06:57:51.347Z,65.80
2022-12-18T07:00:18.768Z,70.30
2022-12-18T07:02:45.963Z,67.00
2022-12-18T07:05:13.144Z,68.22
2022-12-18T07:07:40.369Z,66.90
2022-12-18T07:10:07.790Z,66.30
2022-12-18T07:12:35.041Z,65.50
2022-12-18T07:15:02.123Z,69.68
2022-12-18T07:17:30.461Z,65.43
2022-12-18T07:19:57.616Z,61.17
2022-12-18T07:22:26.260Z,64.13
2022-12-18T07:24:53.347Z,65.82
2022-12-18T07:27:20.489Z,65.75
2022-12-18T07:29:47.599Z,63.30
2022-12-18T07:32:14.923Z,64.70
2022-12-18T07:34:42.331Z,60.08
2022-12-18T07:37:09.451Z,66.03
2022-12-18T07:39:36.592Z,66.32
2022-12-18T07:42:22.436Z,64.88
2022-12-18T07:44:50.314Z,70.85
2022-12-18T07:47:17.424Z,67.50
2022-12-18T07:49:44.642Z,59.88
2022-12-18T07:52:13.270Z,66.47
2022-12-18T07:54:41.211Z,66.30
2022-12-18T07:57:16.538Z,66.45
2022-12-18T07:59:54.502Z,62.75
2022-12-18T08:02:21.678Z,73.07
2022-12-18T08:04:49.088Z,66.85
2022-12-18T08:07:16.177Z,63.33
2022-12-18T08:09:43.306Z,68.88
2022-12-18T08:12:10.415Z,62.33
2022-12-18T08:14:37.823Z,66.65
2022-12-18T08:17:05.006Z,60.40
2022-12-18T08:19:32.156Z,57.28
2022-12-18T08:21:59.254Z,61.20
2022-12-18T08:24:26.608Z,57.08
2022-12-18T08:27:20.917Z,50.78
2022-12-18T08:29:40.833Z,58.15
2022-12-18T08:32:08.231Z,56.25
2022-12-18T08:34:35.484Z,51.53
2022-12-18T08:37:02.585Z,50.80
2022-12-18T08:39:29.783Z,53.70
2022-12-18T08:42:15.692Z,54.50
2022-12-18T08:44:42.856Z,59.38
2022-12-18T08:47:09.969Z,51.75
2022-12-18T08:49:37.381Z,53.78
2022-12-18T08:52:04.704Z,59.17
2022-12-18T08:54:31.882Z,53.88
2022-12-18T08:56:58.975Z,57.67
2022-12-18T08:59:26.738Z,53.08
2022-12-18T09:01:55.016Z,56.60
2022-12-18T09:04:23.215Z,48.97
2022-12-18T09:06:50.583Z,49.47
2022-12-18T09:09:18.019Z,51.63
2022-12-18T09:11:45.368Z,48.58
2022-12-18T09:14:12.817Z,51.88
2022-12-18T09:16:40.166Z,54.17
2022-12-18T09:19:07.690Z,57.95
2022-12-18T09:21:37.961Z,53.65
2022-12-18T09:24:08.017Z,57.67
2022-12-18T09:26:36.811Z,51.40
2022-12-18T09:29:04.587Z,53.40
2022-12-18T09:31:31.834Z,54.83
2022-12-18T09:33:59.177Z,54.38
2022-12-18T09:36:26.471Z,52.25
2022-12-18T09:38:54.267Z,59.42
2022-12-18T09:41:41.521Z,55.08
2022-12-18T09:48:30.034Z,58.03
2022-12-18T09:51:02.132Z,57.28
2022-12-18T09:53:34.287Z,57.25
2022-12-18T09:56:03.078Z,55.13
2022-12-18T09:58:46.166Z,56.80
2022-12-18T10:01:15.860Z,59.47
2022-12-18T10:03:43.399Z,56.25
2022-12-18T10:06:19.433Z,62.40
2022-12-18T10:08:47.056Z,56.05
2022-12-18T10:11:34.009Z,60.13
2022-12-18T10:14:15.543Z,61.55
2022-12-18T10:16:52.914Z,62.67
2022-12-18T10:19:24.097Z,56.67
2022-12-18T10:22:03.445Z,61.10
2022-12-18T10:24:41.372Z,61.05
2022-12-18T10:27:19.930Z,62.30
2022-12-18T10:29:47.522Z,65.22
2022-12-18T10:32:23.207Z,56.47
2022-12-18T10:34:59.868Z,60.92
2022-12-18T10:37:29.786Z,58.88
2022-12-18T10:40:10.678Z,54.88
2022-12-18T10:42:38.283Z,64.30
2022-12-18T10:45:16.475Z,61.75
2022-12-18T10:47:49.559Z,66.53
2022-12-18T10:50:26.241Z,69.93
2022-12-18T10:53:00.919Z,64.00
2022-12-18T10:55:33.642Z,67.50
2022-12-18T10:58:26.571Z,64.05
2022-12-18T11:01:21.234Z,62.85
2022-12-18T11:03:51.842Z,66.63
2022-12-18T11:06:25.415Z,69.57
2022-12-18T11:09:08.054Z,62.95
2022-12-18T11:11:40.622Z,66.38
2022-12-18T11:14:23.569Z,59.45
2022-12-18T11:19:41.110Z,60.30
2022-12-18T11:22:22.867Z,60.22
2022-12-18T11:25:29.434Z,59.55
2022-12-18T11:27:43.166Z,55.05
2022-12-18T11:30:11.314Z,53.78
2022-12-18T11:32:40.678Z,53.85
2022-12-18T11:35:31.881Z,52.50
2022-12-18T11:38:08.043Z,51.97
2022-12-18T11:40:41.120Z,53.72
2022-12-18T11:43:37.305Z,51.03
2022-12-18T11:46:19.557Z,59.58
2022-12-18T11:49:07.076Z,54.50
2022-12-18T11:52:13.705Z,51.08
2022-12-18T11:54:41.048Z,56.20
2022-12-18T11:57:08.334Z,50.38
2022-12-18T11:59:59.380Z,53.70
2022-12-18T12:02:45.374Z,51.38
2022-12-18T12:05:43.648Z,56.25
2022-12-18T12:08:19.375Z,47.67
2022-12-18T12:13:51.344Z,48.55
2022-12-18T12:16:36.127Z,47.72
2022-12-18T12:19:17.302Z,50.70
2022-12-18T12:21:59.557Z,52.97
2022-12-18T12:24:55.751Z,50.92
2022-12-18T12:27:52.143Z,53.45
2022-12-18T12:30:22.989Z,46.03
2022-12-18T12:33:28.054Z,52.33
2022-12-18T12:36:13.568Z,49.40
2022-12-18T12:39:02.356Z,47.38
2022-12-18T12:41:52.142Z,47.00
2022-12-18T12:44:30.895Z,45.17
2022-12-18T12:47:01.777Z,44.08
2022-12-18T12:49:36.310Z,44.65
2022-12-18T12:52:12.296Z,45.70
2022-12-18T12:54:40.098Z,47.22
2022-12-18T12:57:23.505Z,48.55
2022-12-18T13:00:04.735Z,46.85
2022-12-18T13:02:44.111Z,45.70
2022-12-18T13:05:23.412Z,53.22
2022-12-18T13:08:00.783Z,45.53
2022-12-18T13:10:34.097Z,45.38
2022-12-18T13:13:13.353Z,41.88
2022-12-18T13:15:42.375Z,47.60
2022-12-18T13:18:09.663Z,52.33
2022-12-18T13:20:44.710Z,43.60
2022-12-18T13:23:24.378Z,45.63
2022-12-18T13:25:53.870Z,44.92
2022-12-18T13:28:49.746Z,43.58
2022-12-18T13:31:41.839Z,42.92
2022-12-18T13:34:27.914Z,46.25
2022-12-18T13:37:40.817Z,41.47
2022-12-18T13:40:40.415Z,41.72
2022-12-18T13:43:22.858Z,37.85
2022-12-18T13:46:27.139Z,35.60
2022-12-18T13:49:06.553Z,42.45
2022-12-18T13:51:35.216Z,46.15
2022-12-18T13:54:41.523Z,45.70
2022-12-18T13:57:35.624Z,43.03
2022-12-18T14:00:31.540Z,47.08
2022-12-18T14:02:59.575Z,43.80
2022-12-18T14:05:32.742Z,47.45
2022-12-18T14:08:03.135Z,43.10
2022-12-18T14:10:49.167Z,45.75
2022-12-18T14:13:24.507Z,49.72
2022-12-18T14:15:52.245Z,44.38
2022-12-18T14:18:45.368Z,54.05
2022-12-18T14:21:24.724Z,44.03
2022-12-18T14:24:19.661Z,44.05
2022-12-18T14:26:48.677Z,43.55
2022-12-18T14:29:24.830Z,40.50
2022-12-18T14:32:13.484Z,40.30
2022-12-18T14:34:49.739Z,38.00
2022-12-18T14:37:22.390Z,47.85
2022-12-18T14:40:11.042Z,43.42
2022-12-18T14:42:38.844Z,36.42
2022-12-18T14:45:41.620Z,33.80
2022-12-18T14:48:12.752Z,31.20
2022-12-18T14:50:41.609Z,34.92
2022-12-18T14:53:21.012Z,30.23
2022-12-18T14:55:49.752Z,30.77
2022-12-18T14:58:18.214Z,30.23
2022-12-18T15:00:45.543Z,34.40
2022-12-18T15:03:20.082Z,35.72
2022-12-18T15:05:47.939Z,33.55
2022-12-18T15:08:29.478Z,34.80
2022-12-18T15:10:57.843Z,29.85
2022-12-18T15:13:25.745Z,35.00
2022-12-18T15:15:54.563Z,36.33
2022-12-18T15:18:42.685Z,32.97
2022-12-18T15:21:11.776Z,33.42
2022-12-18T15:23:45.302Z,36.33
2022-12-18T15:26:15.539Z,39.80
2022-12-18T15:28:45.676Z,34.33
2022-12-18T15:31:13.212Z,38.17
2022-12-18T15:33:45.159Z,39.65
2022-12-18T15:36:18.533Z,36.72
2022-12-18T15:38:54.395Z,38.22
2022-12-18T15:41:25.051Z,37.60
2022-12-18T15:43:53.666Z,31.90
2022-12-18T15:46:23.376Z,35.92
2022-12-18T15:49:01.174Z,33.28
2022-12-18T15:51:38.713Z,31.85
2022-12-18T15:54:07.473Z,32.45
2022-12-18T15:56:53.489Z,28.23
2022-12-18T15:59:21.770Z,29.85
2022-12-18T16:01:53.870Z,31.75
2022-12-18T16:04:22.727Z,31.65
2022-12-18T16:07:13.884Z,32.78
2022-12-18T16:09:38.089Z,30.73
2022-12-18T16:12:06.861Z,32.85
2022-12-18T16:14:34.367Z,33.05
2022-12-18T16:17:05.013Z,34.05
2022-12-18T16:19:32.322Z,33.28
2022-12-18T16:21:59.998Z,35.33
2022-12-18T16:24:32.502Z,35.92
2022-12-18T16:27:01.113Z,37.95
2022-12-18T16:29:29.363Z,35.88
2022-12-18T16:36:14.479Z,39.03
2022-12-18T16:38:41.795Z,37.80
2022-12-18T16:41:34.853Z,31.80
2022-12-18T16:44:02.267Z,34.25
2022-12-18T17:25:44.264Z,41.00
2022-12-18T18:26:48.454Z,48.20
2022-12-18T19:04:14.455Z,53.72
2022-12-18T19:06:42.659Z,54.83
2022-12-18T19:27:09.269Z,57.15
2022-12-18T19:29:36.835Z,53.33
2022-12-18T19:32:05.284Z,54.90
2022-12-18T19:34:32.479Z,51.92
2022-12-18T19:37:00.066Z,57.03
2022-12-18T19:39:27.592Z,54.03
2022-12-18T19:41:54.675Z,52.35
2022-12-18T19:44:21.851Z,57.00
2022-12-18T19:46:51.951Z,56.25
2022-12-18T19:58:28.095Z,51.67
2022-12-18T20:00:55.330Z,52.92
2022-12-18T20:03:28.887Z,53.95
2022-12-18T20:06:33.912Z,61.13
2022-12-18T20:09:04.949Z,52.30
2022-12-18T20:11:33.393Z,54.42
2022-12-18T20:14:03.827Z,55.38
2022-12-18T20:16:31.033Z,60.85
2022-12-18T20:18:58.840Z,53.22
2022-12-18T20:21:26.436Z,52.63
2022-12-18T20:23:55.699Z,51.35
2022-12-18T20:26:24.004Z,58.58
2022-12-18T20:28:51.519Z,53.45
2022-12-18T20:31:18.840Z,51.92
2022-12-18T20:33:48.659Z,56.00
2022-12-18T20:36:20.155Z,56.75
2022-12-18T20:38:50.840Z,54.90
2022-12-18T20:41:20.733Z,55.78
2022-12-18T20:43:48.296Z,53.20
2022-12-18T20:46:17.119Z,53.65
2022-12-18T20:48:44.768Z,51.45
2022-12-18T20:51:14.658Z,55.22
2022-12-18T20:53:42.469Z,60.40
2022-12-18T21:00:36.374Z,51.67
